sensor_id;sensor_type;location;lat;lon;timestamp;temperature;humidity
11221;DHT22;8517;53.546;10.104;2022-08-21T00:01:39;19.20;99.90
11221;DHT22;8517;53.546;10.104;2022-08-21T00:04:07;19.10;99.90
11221;DHT22;8517;53.546;10.104;2022-08-21T00:06:34;19.10;99.90
11221;DHT22;8517;53.546;10.104;2022-08-21T00:09:01;19.10;99.90
11221;DHT22;8517;53.546;10.104;2022-08-21T00:11:28;19.00;99.90
11221;DHT22;8517;53.546;10.104;2022-08-21T00:13:56;19.00;99.90
11221;DHT22;8517;53.546;10.104;2022-08-21T00:16:24;19.00;99.90
11221;DHT22;8517;53.546;10.104;2022-08-21T00:18:50;18.90;99.90
11221;DHT22;8517;53.546;10.104;2022-08-21T00:21:17;18.90;99.90
11221;DHT22;8517;53.546;10.104;2022-08-21T00:23:44;18.80;99.90
11221;DHT22;8517;53.546;10.104;2022-08-21T00:26:11;18.80;99.90
11221;DHT22;8517;53.546;10.104;2022-08-21T00:28:38;18.80;99.90
11221;DHT22;8517;53.546;10.104;2022-08-21T00:31:06;18.80;99.90
11221;DHT22;8517;53.546;10.104;2022-08-21T00:33:33;18.80;99.90
11221;DHT22;8517;53.546;10.104;2022-08-21T00:36:00;18.80;99.90
11221;DHT22;8517;53.546;10.104;2022-08-21T00:38:27;18.80;99.90
11221;DHT22;8517;53.546;10.104;2022-08-21T00:40:56;18.80;99.90
11221;DHT22;8517;53.546;10.104;2022-08-21T00:43:28;18.80;99.90
11221;DHT22;8517;53.546;10.104;2022-08-21T00:45:57;18.80;99.90
11221;DHT22;8517;53.546;10.104;2022-08-21T00:48:26;18.70;99.90
11221;DHT22;8517;53.546;10.104;2022-08-21T00:50:57;18.70;99.90
11221;DHT22;8517;53.546;10.104;2022-08-21T00:53:25;18.70;99.90
11221;DHT22;8517;53.546;10.104;2022-08-21T00:55:52;18.70;99.90
11221;DHT22;8517;53.546;10.104;2022-08-21T00:58:19;18.70;99.90
11221;DHT22;8517;53.546;10.104;2022-08-21T01:00:50;18.70;99.90
11221;DHT22;8517;53.546;10.104;2022-08-21T01:03:19;18.60;99.90
11221;DHT22;8517;53.546;10.104;2022-08-21T01:05:47;18.60;99.90
11221;DHT22;8517;53.546;10.104;2022-08-21T01:08:16;18.60;99.90
11221;DHT22;8517;53.546;10.104;2022-08-21T01:10:44;18.60;99.90
11221;DHT22;8517;53.546;10.104;2022-08-21T01:13:14;18.60;99.90
11221;DHT22;8517;53.546;10.104;2022-08-21T01:15:44;18.50;99.90
11221;DHT22;8517;53.546;10.104;2022-08-21T01:18:13;18.50;99.90
11221;DHT22;8517;53.546;10.104;2022-08-21T01:20:44;18.50;99.90
11221;DHT22;8517;53.546;10.104;2022-08-21T01:23:12;18.50;99.90
11221;DHT22;8517;53.546;10.104;2022-08-21T01:25:39;18.50;99.90
11221;DHT22;8517;53.546;10.104;2022-08-21T01:28:11;18.50;99.90
11221;DHT22;8517;53.546;10.104;2022-08-21T01:30:40;18.50;99.90
11221;DHT22;8517;53.546;10.104;2022-08-21T01:33:08;18.60;99.90
11221;DHT22;8517;53.546;10.104;2022-08-21T01:35:35;18.60;99.90
11221;DHT22;8517;53.546;10.104;2022-08-21T01:38:02;18.60;99.90
11221;DHT22;8517;53.546;10.104;2022-08-21T01:40:30;18.60;99.90
11221;DHT22;8517;53.546;10.104;2022-08-21T01:42:57;18.60;99.90
11221;DHT22;8517;53.546;10.104;2022-08-21T01:45:24;18.60;99.90
11221;DHT22;8517;53.546;10.104;2022-08-21T01:47:51;18.60;99.90
11221;DHT22;8517;53.546;10.104;2022-08-21T01:50:19;18.60;99.90
11221;DHT22;8517;53.546;10.104;2022-08-21T01:52:46;18.60;99.90
11221;DHT22;8517;53.546;10.104;2022-08-21T01:55:15;18.60;99.90
11221;DHT22;8517;53.546;10.104;2022-08-21T01:57:45;18.60;99.90
11221;DHT22;8517;53.546;10.104;2022-08-21T02:00:15;18.60;99.90
11221;DHT22;8517;53.546;10.104;2022-08-21T02:02:42;18.50;99.90
11221;DHT22;8517;53.546;10.104;2022-08-21T02:05:10;18.50;99.90
11221;DHT22;8517;53.546;10.104;2022-08-21T02:07:38;18.50;99.90
11221;DHT22;8517;53.546;10.104;2022-08-21T02:10:07;18.50;99.90
11221;DHT22;8517;53.546;10.104;2022-08-21T02:12:34;18.40;99.90
11221;DHT22;8517;53.546;10.104;2022-08-21T02:15:04;18.40;99.90
11221;DHT22;8517;53.546;10.104;2022-08-21T02:17:37;18.40;99.90
11221;DHT22;8517;53.546;10.104;2022-08-21T02:20:05;18.30;99.90
11221;DHT22;8517;53.546;10.104;2022-08-21T02:22:32;18.30;99.90
11221;DHT22;8517;53.546;10.104;2022-08-21T02:24:59;18.20;99.90
11221;DHT22;8517;53.546;10.104;2022-08-21T02:27:26;18.20;99.90
11221;DHT22;8517;53.546;10.104;2022-08-21T02:29:54;18.10;99.90
11221;DHT22;8517;53.546;10.104;2022-08-21T02:32:22;18.00;99.90
11221;DHT22;8517;53.546;10.104;2022-08-21T02:34:49;18.00;99.90
11221;DHT22;8517;53.546;10.104;2022-08-21T02:37:16;18.00;99.90
11221;DHT22;8517;53.546;10.104;2022-08-21T02:39:42;17.90;99.90
11221;DHT22;8517;53.546;10.104;2022-08-21T02:42:09;17.90;99.90
11221;DHT22;8517;53.546;10.104;2022-08-21T02:44:36;17.80;99.90
11221;DHT22;8517;53.546;10.104;2022-08-21T02:47:03;17.80;99.90
11221;DHT22;8517;53.546;10.104;2022-08-21T02:49:31;17.70;99.90
11221;DHT22;8517;53.546;10.104;2022-08-21T02:51:58;17.80;99.90
11221;DHT22;8517;53.546;10.104;2022-08-21T02:54:24;17.70;99.90
11221;DHT22;8517;53.546;10.104;2022-08-21T02:56:51;17.80;99.90
11221;DHT22;8517;53.546;10.104;2022-08-21T02:59:18;17.70;99.90
11221;DHT22;8517;53.546;10.104;2022-08-21T03:01:44;17.70;99.90
11221;DHT22;8517;53.546;10.104;2022-08-21T03:04:11;17.80;99.90
11221;DHT22;8517;53.546;10.104;2022-08-21T03:06:39;17.80;99.90
11221;DHT22;8517;53.546;10.104;2022-08-21T03:09:06;17.70;99.90
11221;DHT22;8517;53.546;10.104;2022-08-21T03:11:33;17.70;99.90
11221;DHT22;8517;53.546;10.104;2022-08-21T03:14:01;17.70;99.90
11221;DHT22;8517;53.546;10.104;2022-08-21T03:16:28;17.70;99.90
11221;DHT22;8517;53.546;10.104;2022-08-21T03:18:55;17.70;99.90
11221;DHT22;8517;53.546;10.104;2022-08-21T03:21:22;17.70;99.90
11221;DHT22;8517;53.546;10.104;2022-08-21T03:23:52;17.70;99.90
11221;DHT22;8517;53.546;10.104;2022-08-21T03:26:19;17.70;99.90
11221;DHT22;8517;53.546;10.104;2022-08-21T03:28:46;17.70;99.90
11221;DHT22;8517;53.546;10.104;2022-08-21T03:31:14;17.70;99.90
11221;DHT22;8517;53.546;10.104;2022-08-21T03:33:40;17.70;99.90
11221;DHT22;8517;53.546;10.104;2022-08-21T03:36:09;17.70;99.90
11221;DHT22;8517;53.546;10.104;2022-08-21T03:38:37;17.70;99.90
11221;DHT22;8517;53.546;10.104;2022-08-21T03:41:06;17.70;99.90
11221;DHT22;8517;53.546;10.104;2022-08-21T03:43:33;17.60;99.90
11221;DHT22;8517;53.546;10.104;2022-08-21T03:46:01;17.60;99.90
11221;DHT22;8517;53.546;10.104;2022-08-21T03:48:29;17.60;99.90
11221;DHT22;8517;53.546;10.104;2022-08-21T03:50:55;17.50;99.90
11221;DHT22;8517;53.546;10.104;2022-08-21T03:53:22;17.50;99.90
11221;DHT22;8517;53.546;10.104;2022-08-21T03:55:50;17.50;99.90
11221;DHT22;8517;53.546;10.104;2022-08-21T03:58:22;17.50;99.90
11221;DHT22;8517;53.546;10.104;2022-08-21T04:00:51;17.40;99.90
11221;DHT22;8517;53.546;10.104;2022-08-21T04:03:20;17.40;99.90
11221;DHT22;8517;53.546;10.104;2022-08-21T04:05:47;17.40;99.90
11221;DHT22;8517;53.546;10.104;2022-08-21T04:08:15;17.30;99.90
11221;DHT22;8517;53.546;10.104;2022-08-21T04:10:45;17.30;99.90
11221;DHT22;8517;53.546;10.104;2022-08-21T04:13:13;17.30;99.90
11221;DHT22;8517;53.546;10.104;2022-08-21T04:15:42;17.30;99.90
11221;DHT22;8517;53.546;10.104;2022-08-21T04:18:09;17.20;99.90
11221;DHT22;8517;53.546;10.104;2022-08-21T04:20:36;17.20;99.90
11221;DHT22;8517;53.546;10.104;2022-08-21T04:23:04;17.20;99.90
11221;DHT22;8517;53.546;10.104;2022-08-21T04:25:30;17.20;99.90
11221;DHT22;8517;53.546;10.104;2022-08-21T04:27:57;17.10;99.90
11221;DHT22;8517;53.546;10.104;2022-08-21T04:30:24;17.10;99.90
11221;DHT22;8517;53.546;10.104;2022-08-21T04:32:52;17.10;99.90
11221;DHT22;8517;53.546;10.104;2022-08-21T04:35:21;17.10;99.90
11221;DHT22;8517;53.546;10.104;2022-08-21T04:37:48;17.00;99.90
11221;DHT22;8517;53.546;10.104;2022-08-21T04:40:16;17.00;99.90
11221;DHT22;8517;53.546;10.104;2022-08-21T04:42:45;17.00;99.90
11221;DHT22;8517;53.546;10.104;2022-08-21T04:45:20;17.00;99.90
11221;DHT22;8517;53.546;10.104;2022-08-21T04:47:48;17.00;99.90
11221;DHT22;8517;53.546;10.104;2022-08-21T04:50:17;17.00;99.90
11221;DHT22;8517;53.546;10.104;2022-08-21T04:52:44;17.00;99.90
11221;DHT22;8517;53.546;10.104;2022-08-21T04:55:12;17.10;99.90
11221;DHT22;8517;53.546;10.104;2022-08-21T04:57:39;17.10;99.90
11221;DHT22;8517;53.546;10.104;2022-08-21T05:00:08;17.10;99.90
11221;DHT22;8517;53.546;10.104;2022-08-21T05:02:38;17.20;99.90
11221;DHT22;8517;53.546;10.104;2022-08-21T05:05:06;17.20;99.90
11221;DHT22;8517;53.546;10.104;2022-08-21T05:07:34;17.30;99.90
11221;DHT22;8517;53.546;10.104;2022-08-21T05:10:02;17.30;99.90
11221;DHT22;8517;53.546;10.104;2022-08-21T05:12:31;17.40;99.90
11221;DHT22;8517;53.546;10.104;2022-08-21T05:14:58;17.50;99.90
11221;DHT22;8517;53.546;10.104;2022-08-21T05:17:25;17.50;99.90
11221;DHT22;8517;53.546;10.104;2022-08-21T05:19:52;17.60;99.90
11221;DHT22;8517;53.546;10.104;2022-08-21T05:22:20;17.70;99.90
11221;DHT22;8517;53.546;10.104;2022-08-21T05:24:48;17.70;99.90
11221;DHT22;8517;53.546;10.104;2022-08-21T05:27:15;17.70;99.90
11221;DHT22;8517;53.546;10.104;2022-08-21T05:29:41;17.80;99.90
11221;DHT22;8517;53.546;10.104;2022-08-21T05:32:09;17.80;99.90
11221;DHT22;8517;53.546;10.104;2022-08-21T05:34:37;17.90;99.90
11221;DHT22;8517;53.546;10.104;2022-08-21T05:37:04;17.90;99.90
11221;DHT22;8517;53.546;10.104;2022-08-21T05:39:31;17.90;99.90
11221;DHT22;8517;53.546;10.104;2022-08-21T05:41:59;17.90;99.90
11221;DHT22;8517;53.546;10.104;2022-08-21T05:44:26;18.00;99.90
11221;DHT22;8517;53.546;10.104;2022-08-21T05:46:53;18.10;99.90
11221;DHT22;8517;53.546;10.104;2022-08-21T05:49:20;18.20;99.90
11221;DHT22;8517;53.546;10.104;2022-08-21T05:51:59;18.20;99.90
11221;DHT22;8517;53.546;10.104;2022-08-21T05:54:30;18.30;99.90
11221;DHT22;8517;53.546;10.104;2022-08-21T05:59:51;18.30;99.90
11221;DHT22;8517;53.546;10.104;2022-08-21T06:02:18;18.30;99.90
11221;DHT22;8517;53.546;10.104;2022-08-21T06:04:46;18.40;99.90
11221;DHT22;8517;53.546;10.104;2022-08-21T06:07:13;18.50;99.90
11221;DHT22;8517;53.546;10.104;2022-08-21T06:09:40;18.50;99.90
11221;DHT22;8517;53.546;10.104;2022-08-21T06:12:11;18.60;99.90
11221;DHT22;8517;53.546;10.104;2022-08-21T06:14:40;18.70;99.90
11221;DHT22;8517;53.546;10.104;2022-08-21T06:17:09;18.80;99.90
11221;DHT22;8517;53.546;10.104;2022-08-21T06:19:36;18.90;99.90
11221;DHT22;8517;53.546;10.104;2022-08-21T06:22:03;19.00;99.90
11221;DHT22;8517;53.546;10.104;2022-08-21T06:24:30;19.00;99.90
11221;DHT22;8517;53.546;10.104;2022-08-21T06:26:57;19.10;99.90
11221;DHT22;8517;53.546;10.104;2022-08-21T06:29:25;19.20;99.90
11221;DHT22;8517;53.546;10.104;2022-08-21T06:31:52;19.20;99.90
11221;DHT22;8517;53.546;10.104;2022-08-21T06:34:19;19.30;99.90
11221;DHT22;8517;53.546;10.104;2022-08-21T06:36:46;19.30;99.90
11221;DHT22;8517;53.546;10.104;2022-08-21T06:39:12;19.40;99.90
11221;DHT22;8517;53.546;10.104;2022-08-21T06:41:44;19.40;99.90
11221;DHT22;8517;53.546;10.104;2022-08-21T06:44:11;19.50;99.90
11221;DHT22;8517;53.546;10.104;2022-08-21T06:46:39;19.50;99.90
11221;DHT22;8517;53.546;10.104;2022-08-21T06:49:06;19.70;99.90
11221;DHT22;8517;53.546;10.104;2022-08-21T06:51:32;19.70;99.90
11221;DHT22;8517;53.546;10.104;2022-08-21T06:53:59;19.80;99.90
11221;DHT22;8517;53.546;10.104;2022-08-21T06:56:26;19.80;99.90
11221;DHT22;8517;53.546;10.104;2022-08-21T06:58:53;19.90;99.90
11221;DHT22;8517;53.546;10.104;2022-08-21T07:01:20;19.90;99.90
11221;DHT22;8517;53.546;10.104;2022-08-21T07:03:50;20.00;99.90
11221;DHT22;8517;53.546;10.104;2022-08-21T07:06:17;20.10;99.90
11221;DHT22;8517;53.546;10.104;2022-08-21T07:08:44;20.20;99.90
11221;DHT22;8517;53.546;10.104;2022-08-21T07:11:16;20.30;99.90
11221;DHT22;8517;53.546;10.104;2022-08-21T07:13:44;20.40;99.90
11221;DHT22;8517;53.546;10.104;2022-08-21T07:16:11;20.40;99.90
11221;DHT22;8517;53.546;10.104;2022-08-21T07:18:37;20.50;99.90
11221;DHT22;8517;53.546;10.104;2022-08-21T07:21:07;20.60;99.90
11221;DHT22;8517;53.546;10.104;2022-08-21T07:23:37;20.70;99.90
11221;DHT22;8517;53.546;10.104;2022-08-21T07:26:05;20.70;99.90
11221;DHT22;8517;53.546;10.104;2022-08-21T07:28:31;20.80;99.90
11221;DHT22;8517;53.546;10.104;2022-08-21T07:31:00;20.90;99.90
11221;DHT22;8517;53.546;10.104;2022-08-21T07:33:29;20.90;99.90
11221;DHT22;8517;53.546;10.104;2022-08-21T07:35:56;21.00;99.90
11221;DHT22;8517;53.546;10.104;2022-08-21T07:38:27;21.10;99.90
11221;DHT22;8517;53.546;10.104;2022-08-21T07:40:55;21.30;99.90
11221;DHT22;8517;53.546;10.104;2022-08-21T07:43:24;21.40;99.90
11221;DHT22;8517;53.546;10.104;2022-08-21T07:45:51;21.60;99.90
11221;DHT22;8517;53.546;10.104;2022-08-21T07:48:19;21.70;99.90
11221;DHT22;8517;53.546;10.104;2022-08-21T07:50:46;21.90;99.90
11221;DHT22;8517;53.546;10.104;2022-08-21T07:53:13;22.00;99.90
11221;DHT22;8517;53.546;10.104;2022-08-21T07:55:42;22.20;99.90
11221;DHT22;8517;53.546;10.104;2022-08-21T07:58:08;22.40;99.90
11221;DHT22;8517;53.546;10.104;2022-08-21T08:00:35;22.50;99.90
11221;DHT22;8517;53.546;10.104;2022-08-21T08:03:02;22.70;99.90
11221;DHT22;8517;53.546;10.104;2022-08-21T08:05:50;22.80;99.90
11221;DHT22;8517;53.546;10.104;2022-08-21T08:08:20;23.00;99.90
11221;DHT22;8517;53.546;10.104;2022-08-21T08:10:48;23.20;99.90
11221;DHT22;8517;53.546;10.104;2022-08-21T08:13:15;23.30;99.90
11221;DHT22;8517;53.546;10.104;2022-08-21T08:15:42;23.30;99.90
11221;DHT22;8517;53.546;10.104;2022-08-21T08:18:09;23.40;99.90
11221;DHT22;8517;53.546;10.104;2022-08-21T08:20:35;23.50;99.90
11221;DHT22;8517;53.546;10.104;2022-08-21T08:23:03;23.60;99.90
11221;DHT22;8517;53.546;10.104;2022-08-21T08:25:30;23.70;99.90
11221;DHT22;8517;53.546;10.104;2022-08-21T08:27:58;23.80;99.90
11221;DHT22;8517;53.546;10.104;2022-08-21T08:30:24;23.90;99.90
11221;DHT22;8517;53.546;10.104;2022-08-21T08:32:51;24.00;99.90
11221;DHT22;8517;53.546;10.104;2022-08-21T08:35:27;24.20;99.90
11221;DHT22;8517;53.546;10.104;2022-08-21T08:37:54;24.30;99.90
11221;DHT22;8517;53.546;10.104;2022-08-21T08:40:30;24.40;99.90
11221;DHT22;8517;53.546;10.104;2022-08-21T08:43:00;24.50;99.90
11221;DHT22;8517;53.546;10.104;2022-08-21T08:45:27;24.60;99.90
11221;DHT22;8517;53.546;10.104;2022-08-21T08:48:01;24.70;99.90
11221;DHT22;8517;53.546;10.104;2022-08-21T08:50:39;24.70;99.90
11221;DHT22;8517;53.546;10.104;2022-08-21T08:53:10;24.80;99.90
11221;DHT22;8517;53.546;10.104;2022-08-21T08:55:40;24.90;99.90
11221;DHT22;8517;53.546;10.104;2022-08-21T08:58:12;24.90;99.90
11221;DHT22;8517;53.546;10.104;2022-08-21T09:00:43;25.10;99.90
11221;DHT22;8517;53.546;10.104;2022-08-21T09:03:11;25.20;99.90
11221;DHT22;8517;53.546;10.104;2022-08-21T09:05:42;25.30;99.90
11221;DHT22;8517;53.546;10.104;2022-08-21T09:08:46;25.50;99.90
11221;DHT22;8517;53.546;10.104;2022-08-21T09:11:23;25.70;99.90
11221;DHT22;8517;53.546;10.104;2022-08-21T09:14:01;25.80;99.90
11221;DHT22;8517;53.546;10.104;2022-08-21T09:16:38;25.90;99.90
11221;DHT22;8517;53.546;10.104;2022-08-21T09:19:25;26.10;99.90
11221;DHT22;8517;53.546;10.104;2022-08-21T09:22:00;26.10;99.90
11221;DHT22;8517;53.546;10.104;2022-08-21T09:24:32;26.20;99.90
11221;DHT22;8517;53.546;10.104;2022-08-21T09:27:03;26.20;99.90
11221;DHT22;8517;53.546;10.104;2022-08-21T09:29:37;26.30;99.90
11221;DHT22;8517;53.546;10.104;2022-08-21T09:32:10;26.30;99.90
11221;DHT22;8517;53.546;10.104;2022-08-21T09:34:37;26.30;99.90
11221;DHT22;8517;53.546;10.104;2022-08-21T09:37:04;26.30;99.90
11221;DHT22;8517;53.546;10.104;2022-08-21T09:39:36;26.30;99.90
11221;DHT22;8517;53.546;10.104;2022-08-21T09:42:06;26.30;99.90
11221;DHT22;8517;53.546;10.104;2022-08-21T09:44:37;26.20;99.90
11221;DHT22;8517;53.546;10.104;2022-08-21T09:47:07;26.20;99.90
11221;DHT22;8517;53.546;10.104;2022-08-21T09:49:36;26.20;99.90
11221;DHT22;8517;53.546;10.104;2022-08-21T09:52:05;26.20;99.90
11221;DHT22;8517;53.546;10.104;2022-08-21T09:54:37;26.20;99.90
11221;DHT22;8517;53.546;10.104;2022-08-21T09:57:14;26.20;99.90
11221;DHT22;8517;53.546;10.104;2022-08-21T10:00:10;26.20;99.90
11221;DHT22;8517;53.546;10.104;2022-08-21T10:02:41;26.30;99.90
11221;DHT22;8517;53.546;10.104;2022-08-21T10:05:16;26.40;99.90
11221;DHT22;8517;53.546;10.104;2022-08-21T10:07:44;26.50;99.90
11221;DHT22;8517;53.546;10.104;2022-08-21T10:10:17;26.60;99.90
11221;DHT22;8517;53.546;10.104;2022-08-21T10:12:51;26.60;99.90
11221;DHT22;8517;53.546;10.104;2022-08-21T10:15:24;26.60;99.90
11221;DHT22;8517;53.546;10.104;2022-08-21T10:18:02;26.50;99.90
11221;DHT22;8517;53.546;10.104;2022-08-21T10:20:37;26.60;99.90
11221;DHT22;8517;53.546;10.104;2022-08-21T10:23:19;26.50;99.90
11221;DHT22;8517;53.546;10.104;2022-08-21T10:25:52;26.50;99.90
11221;DHT22;8517;53.546;10.104;2022-08-21T10:28:27;26.60;99.90
11221;DHT22;8517;53.546;10.104;2022-08-21T10:31:02;26.60;99.90
11221;DHT22;8517;53.546;10.104;2022-08-21T10:33:42;26.60;99.90
11221;DHT22;8517;53.546;10.104;2022-08-21T10:36:15;26.60;99.90
11221;DHT22;8517;53.546;10.104;2022-08-21T10:38:58;26.70;99.90
11221;DHT22;8517;53.546;10.104;2022-08-21T10:41:36;26.80;99.90
11221;DHT22;8517;53.546;10.104;2022-08-21T10:44:13;26.80;99.90
11221;DHT22;8517;53.546;10.104;2022-08-21T10:46:53;26.90;99.90
11221;DHT22;8517;53.546;10.104;2022-08-21T10:49:27;27.00;99.90
11221;DHT22;8517;53.546;10.104;2022-08-21T10:52:07;27.10;99.90
11221;DHT22;8517;53.546;10.104;2022-08-21T10:54:42;27.00;99.90
11221;DHT22;8517;53.546;10.104;2022-08-21T11:00:29;27.00;99.90
11221;DHT22;8517;53.546;10.104;2022-08-21T11:03:05;27.00;99.90
11221;DHT22;8517;53.546;10.104;2022-08-21T11:05:39;27.00;99.90
11221;DHT22;8517;53.546;10.104;2022-08-21T11:08:10;26.90;99.90
11221;DHT22;8517;53.546;10.104;2022-08-21T11:10:42;26.90;99.90
11221;DHT22;8517;53.546;10.104;2022-08-21T11:13:16;26.90;99.90
11221;DHT22;8517;53.546;10.104;2022-08-21T11:15:49;26.80;99.90
11221;DHT22;8517;53.546;10.104;2022-08-21T11:18:26;26.80;99.90
11221;DHT22;8517;53.546;10.104;2022-08-21T11:21:03;26.80;99.90
11221;DHT22;8517;53.546;10.104;2022-08-21T11:23:39;26.80;99.90
11221;DHT22;8517;53.546;10.104;2022-08-21T11:26:12;26.80;99.90
11221;DHT22;8517;53.546;10.104;2022-08-21T11:28:47;26.80;99.90
11221;DHT22;8517;53.546;10.104;2022-08-21T11:31:28;26.90;99.90
11221;DHT22;8517;53.546;10.104;2022-08-21T11:34:12;26.90;99.90
11221;DHT22;8517;53.546;10.104;2022-08-21T11:36:46;26.90;99.90
11221;DHT22;8517;53.546;10.104;2022-08-21T11:39:22;26.90;99.90
11221;DHT22;8517;53.546;10.104;2022-08-21T11:41:56;26.90;99.90
11221;DHT22;8517;53.546;10.104;2022-08-21T11:44:32;26.90;99.90
11221;DHT22;8517;53.546;10.104;2022-08-21T11:47:08;26.90;99.90
11221;DHT22;8517;53.546;10.104;2022-08-21T11:50:06;26.90;99.90
11221;DHT22;8517;53.546;10.104;2022-08-21T11:52:43;26.90;99.90
11221;DHT22;8517;53.546;10.104;2022-08-21T11:55:15;26.90;99.90
11221;DHT22;8517;53.546;10.104;2022-08-21T11:57:49;26.80;99.90
11221;DHT22;8517;53.546;10.104;2022-08-21T12:03:54;26.90;99.90
11221;DHT22;8517;53.546;10.104;2022-08-21T12:06:31;26.90;99.90
11221;DHT22;8517;53.546;10.104;2022-08-21T12:09:01;27.00;99.90
11221;DHT22;8517;53.546;10.104;2022-08-21T12:11:59;27.00;99.90
11221;DHT22;8517;53.546;10.104;2022-08-21T12:14:43;27.10;99.90
11221;DHT22;8517;53.546;10.104;2022-08-21T12:17:18;27.10;99.90
11221;DHT22;8517;53.546;10.104;2022-08-21T12:19:45;27.20;99.90
11221;DHT22;8517;53.546;10.104;2022-08-21T12:22:36;27.20;99.90
11221;DHT22;8517;53.546;10.104;2022-08-21T12:25:05;27.20;99.90
11221;DHT22;8517;53.546;10.104;2022-08-21T12:27:45;27.20;99.90
11221;DHT22;8517;53.546;10.104;2022-08-21T12:30:22;27.20;99.90
11221;DHT22;8517;53.546;10.104;2022-08-21T12:33:00;27.30;99.90
11221;DHT22;8517;53.546;10.104;2022-08-21T12:35:32;27.30;99.90
11221;DHT22;8517;53.546;10.104;2022-08-21T12:38:07;27.30;99.90
11221;DHT22;8517;53.546;10.104;2022-08-21T12:40:39;27.30;99.90
11221;DHT22;8517;53.546;10.104;2022-08-21T12:43:12;27.30;99.90
11221;DHT22;8517;53.546;10.104;2022-08-21T12:45:42;27.40;99.90
11221;DHT22;8517;53.546;10.104;2022-08-21T12:48:16;27.50;99.90
11221;DHT22;8517;53.546;10.104;2022-08-21T12:50:48;27.60;99.90
11221;DHT22;8517;53.546;10.104;2022-08-21T12:53:25;27.70;99.90
11221;DHT22;8517;53.546;10.104;2022-08-21T12:55:54;27.80;99.90
11221;DHT22;8517;53.546;10.104;2022-08-21T12:58:25;27.90;99.90
11221;DHT22;8517;53.546;10.104;2022-08-21T13:01:00;27.90;99.90
11221;DHT22;8517;53.546;10.104;2022-08-21T13:03:28;27.90;99.90
11221;DHT22;8517;53.546;10.104;2022-08-21T13:05:55;28.00;99.90
11221;DHT22;8517;53.546;10.104;2022-08-21T13:08:25;27.90;99.90
11221;DHT22;8517;53.546;10.104;2022-08-21T13:10:58;27.90;99.90
11221;DHT22;8517;53.546;10.104;2022-08-21T13:13:27;27.80;99.90
11221;DHT22;8517;53.546;10.104;2022-08-21T13:15:57;27.70;99.90
11221;DHT22;8517;53.546;10.104;2022-08-21T13:18:26;27.60;99.90
11221;DHT22;8517;53.546;10.104;2022-08-21T13:21:03;27.50;99.90
11221;DHT22;8517;53.546;10.104;2022-08-21T13:23:33;27.40;99.90
11221;DHT22;8517;53.546;10.104;2022-08-21T13:25:59;27.30;99.90
11221;DHT22;8517;53.546;10.104;2022-08-21T13:28:32;27.30;99.90
11221;DHT22;8517;53.546;10.104;2022-08-21T13:31:01;27.30;99.90
11221;DHT22;8517;53.546;10.104;2022-08-21T13:33:34;27.30;99.90
11221;DHT22;8517;53.546;10.104;2022-08-21T13:36:04;27.30;99.90
11221;DHT22;8517;53.546;10.104;2022-08-21T13:38:34;27.30;99.90
11221;DHT22;8517;53.546;10.104;2022-08-21T13:41:05;27.40;99.90
11221;DHT22;8517;53.546;10.104;2022-08-21T13:43:35;27.40;99.90
11221;DHT22;8517;53.546;10.104;2022-08-21T13:46:08;27.40;99.90
11221;DHT22;8517;53.546;10.104;2022-08-21T13:48:36;27.40;99.90
11221;DHT22;8517;53.546;10.104;2022-08-21T13:51:04;27.40;99.90
11221;DHT22;8517;53.546;10.104;2022-08-21T13:53:35;27.40;99.90
11221;DHT22;8517;53.546;10.104;2022-08-21T13:56:03;27.40;99.90
11221;DHT22;8517;53.546;10.104;2022-08-21T13:58:32;27.40;99.90
11221;DHT22;8517;53.546;10.104;2022-08-21T14:01:00;27.40;99.90
11221;DHT22;8517;53.546;10.104;2022-08-21T14:03:32;27.40;99.90
11221;DHT22;8517;53.546;10.104;2022-08-21T14:06:01;27.40;99.90
11221;DHT22;8517;53.546;10.104;2022-08-21T14:08:33;27.40;99.90
11221;DHT22;8517;53.546;10.104;2022-08-21T14:11:02;27.50;99.90
11221;DHT22;8517;53.546;10.104;2022-08-21T14:13:34;27.50;99.90
11221;DHT22;8517;53.546;10.104;2022-08-21T14:16:09;27.50;99.90
11221;DHT22;8517;53.546;10.104;2022-08-21T14:18:47;27.50;99.90
11221;DHT22;8517;53.546;10.104;2022-08-21T14:21:26;27.60;99.90
11221;DHT22;8517;53.546;10.104;2022-08-21T14:24:02;27.60;99.40
11221;DHT22;8517;53.546;10.104;2022-08-21T14:26:29;27.60;99.40
11221;DHT22;8517;53.546;10.104;2022-08-21T14:28:59;27.60;99.10
11221;DHT22;8517;53.546;10.104;2022-08-21T14:31:30;27.60;98.70
11221;DHT22;8517;53.546;10.104;2022-08-21T14:33:59;27.60;98.80
11221;DHT22;8517;53.546;10.104;2022-08-21T14:36:26;27.60;98.80
11221;DHT22;8517;53.546;10.104;2022-08-21T14:38:53;27.60;98.90
11221;DHT22;8517;53.546;10.104;2022-08-21T14:41:23;27.60;98.30
11221;DHT22;8517;53.546;10.104;2022-08-21T14:43:54;27.60;98.40
11221;DHT22;8517;53.546;10.104;2022-08-21T14:46:24;27.60;98.80
11221;DHT22;8517;53.546;10.104;2022-08-21T14:48:51;27.60;98.00
11221;DHT22;8517;53.546;10.104;2022-08-21T14:51:18;27.70;98.80
11221;DHT22;8517;53.546;10.104;2022-08-21T14:53:45;27.60;99.00
11221;DHT22;8517;53.546;10.104;2022-08-21T14:56:13;27.70;98.80
11221;DHT22;8517;53.546;10.104;2022-08-21T14:58:44;27.70;97.80
11221;DHT22;8517;53.546;10.104;2022-08-21T15:01:13;27.70;97.20
11221;DHT22;8517;53.546;10.104;2022-08-21T15:03:41;27.70;97.30
11221;DHT22;8517;53.546;10.104;2022-08-21T15:06:09;27.70;97.80
11221;DHT22;8517;53.546;10.104;2022-08-21T15:08:36;27.70;97.50
11221;DHT22;8517;53.546;10.104;2022-08-21T15:11:04;27.70;97.50
11221;DHT22;8517;53.546;10.104;2022-08-21T15:13:32;27.70;97.00
11221;DHT22;8517;53.546;10.104;2022-08-21T15:16:00;27.70;96.60
11221;DHT22;8517;53.546;10.104;2022-08-21T15:18:29;27.70;96.20
11221;DHT22;8517;53.546;10.104;2022-08-21T15:20:56;27.70;96.40
11221;DHT22;8517;53.546;10.104;2022-08-21T15:23:23;27.60;96.70
11221;DHT22;8517;53.546;10.104;2022-08-21T15:25:51;27.70;96.50
11221;DHT22;8517;53.546;10.104;2022-08-21T15:28:19;27.70;96.80
11221;DHT22;8517;53.546;10.104;2022-08-21T15:30:48;27.70;96.70
11221;DHT22;8517;53.546;10.104;2022-08-21T15:33:16;27.70;96.40
11221;DHT22;8517;53.546;10.104;2022-08-21T15:35:43;27.80;96.40
11221;DHT22;8517;53.546;10.104;2022-08-21T15:38:11;27.80;96.50
11221;DHT22;8517;53.546;10.104;2022-08-21T15:40:39;27.80;97.10
11221;DHT22;8517;53.546;10.104;2022-08-21T15:43:21;27.80;96.90
11221;DHT22;8517;53.546;10.104;2022-08-21T15:45:48;27.80;97.40
11221;DHT22;8517;53.546;10.104;2022-08-21T15:48:16;27.80;96.60
11221;DHT22;8517;53.546;10.104;2022-08-21T15:50:43;27.90;97.20
11221;DHT22;8517;53.546;10.104;2022-08-21T15:56:36;28.00;96.30
11221;DHT22;8517;53.546;10.104;2022-08-21T15:59:07;28.00;96.30
11221;DHT22;8517;53.546;10.104;2022-08-21T16:01:35;28.10;96.40